Time;durP1;ratioP1;P1;durP2;ratioP2;P2;SDS_P1;SDS_P2;PMS_P1;PMS_P2;Temp;Humidity;BMP_temperature;BMP_pressure;BME280_temperature;BME280_humidity;BME280_pressure;Samples;Min_cycle;Max_cycle;Signal;HPM_P1;HPM_P2
2022/09/09 00:02:07;;;;;;;21.33;9.50;;;;;;;20.44;55.84;95389.84;5099272;28;20039;-89
2022/09/09 00:04:35;;;;;;;18.48;9.55;;;;;;;20.22;56.14;95339.75;5097380;28;20040;-89
2022/09/09 00:07:30;;;;;;;14.60;9.15;;;;;;;21.04;56.34;95472.84;5097237;28;20524;-89
2022/09/09 00:10:14;;;;;;;15.93;9.52;;;;;;;20.86;57.12;95471.41;5092821;28;20044;-89
2022/09/09 00:12:55;;;;;;;18.92;9.85;;;;;;;20.21;56.65;95367.03;5096100;28;20059;-89
2022/09/09 00:15:26;;;;;;;17.27;10.07;;;;;;;20.75;57.35;95471.00;5097469;28;20039;-89
2022/09/09 00:18:17;;;;;;;16.48;9.10;;;;;;;20.26;57.26;95386.47;5096478;28;20066;-89
2022/09/09 00:20:46;;;;;;;14.70;9.10;;;;;;;20.68;57.23;95449.22;5096524;28;20131;-89
2022/09/09 00:23:19;;;;;;;16.77;9.68;;;;;;;20.81;57.40;95468.94;5096661;28;20524;-89
2022/09/09 00:26:09;;;;;;;19.85;10.27;;;;;;;20.64;58.08;95458.28;5096581;28;20429;-89
2022/09/09 00:28:42;;;;;;;15.52;9.68;;;;;;;20.68;57.91;95451.09;5096158;28;20188;-89
2022/09/09 00:31:14;;;;;;;15.27;10.13;;;;;;;19.11;57.78;95191.53;5096982;28;20039;-89
2022/09/09 00:33:42;;;;;;;14.20;8.88;;;;;;;20.00;58.21;95343.59;5096117;28;20031;-89
2022/09/09 00:36:15;;;;;;;17.98;9.35;;;;;;;20.53;58.45;95446.31;5115070;28;20046;-89
2022/09/09 00:38:47;;;;;;;19.30;10.85;;;;;;;20.26;58.63;95399.16;5096319;28;20055;-89
2022/09/09 00:41:39;;;;;;;17.08;10.10;;;;;;;19.59;59.81;95347.06;5096386;28;20040;-89
2022/09/09 00:44:29;;;;;;;20.10;9.93;;;;;;;20.42;58.99;95432.47;5096208;28;20066;-89
2022/09/09 00:47:38;;;;;;;18.95;9.90;;;;;;;20.32;59.40;95424.75;5096194;28;20051;-89
2022/09/09 00:50:13;;;;;;;16.52;10.32;;;;;;;20.43;59.19;95428.69;5096147;28;20036;-89
2022/09/09 00:52:57;;;;;;;14.00;10.25;;;;;;;19.40;58.98;95259.81;5114442;28;20070;-89
2022/09/09 00:55:45;;;;;;;18.08;10.18;;;;;;;19.53;58.82;95286.47;5095712;28;20295;-89
2022/09/09 00:58:11;;;;;;;18.90;10.13;;;;;;;20.56;58.89;95432.22;5099846;28;20498;-89
2022/09/09 01:00:56;;;;;;;19.55;10.60;;;;;;;20.51;59.00;95435.91;5097286;28;20043;-89
2022/09/09 01:03:37;;;;;;;14.45;9.57;;;;;;;20.18;59.03;95387.34;5095826;28;20040;-89
2022/09/09 01:06:16;;;;;;;13.20;9.55;;;;;;;20.39;59.54;95438.50;5095471;28;20130;-89
2022/09/09 01:09:06;;;;;;;17.33;10.52;;;;;;;20.37;59.37;95433.44;5095162;28;20494;-89
2022/09/09 01:11:42;;;;;;;22.05;10.13;;;;;;;19.57;59.60;95322.38;5095633;28;20056;-89
2022/09/09 01:14:32;;;;;;;16.27;10.75;;;;;;;20.35;59.58;95434.91;5095604;28;20039;-89
2022/09/09 01:17:03;;;;;;;17.02;9.88;;;;;;;20.02;59.66;95386.34;5088764;28;20047;-89
2022/09/09 01:19:43;;;;;;;16.38;10.88;;;;;;;20.34;59.62;95436.03;5097505;28;20069;-89
2022/09/09 01:22:23;;;;;;;17.30;10.80;;;;;;;20.07;59.67;95404.97;5107603;28;20483;-89
2022/09/09 01:25:12;;;;;;;17.73;10.30;;;;;;;20.33;59.73;95437.94;5100827;28;20532;-89
2022/09/09 01:27:41;;;;;;;17.70;10.10;;;;;;;20.42;59.57;95437.88;5103219;28;20075;-89
2022/09/09 01:30:12;;;;;;;17.63;10.70;;;;;;;19.70;59.83;95347.44;5108437;28;20059;-88
2022/09/09 01:32:46;;;;;;;15.43;10.18;;;;;;;20.34;59.68;95438.72;5100298;28;20502;-89
2022/09/09 01:35:38;;;;;;;16.15;11.02;;;;;;;19.87;59.76;95374.25;5112499;28;20517;-89
2022/09/09 01:38:04;;;;;;;14.45;10.10;;;;;;;19.75;59.71;95363.44;5097770;28;20047;-89
2022/09/09 01:40:29;;;;;;;19.35;10.32;;;;;;;19.82;59.95;95387.91;5097871;28;20043;-89
2022/09/09 01:42:56;;;;;;;18.35;10.40;;;;;;;18.65;59.68;95197.81;5116564;28;20143;-89
2022/09/09 01:45:23;;;;;;;13.45;10.30;;;;;;;19.50;59.72;95337.47;5117240;28;20035;-89
2022/09/09 01:47:49;;;;;;;14.45;10.18;;;;;;;19.37;60.29;95317.75;5098329;28;20097;-89
2022/09/09 01:50:16;;;;;;;15.70;10.45;;;;;;;20.02;59.90;95413.25;5097713;28;20062;-89
2022/09/09 01:52:46;;;;;;;18.45;10.13;;;;;;;19.99;59.72;95405.81;5116804;28;20076;-88
2022/09/09 01:55:11;;;;;;;19.67;11.10;;;;;;;20.13;59.92;95440.59;5116473;28;20096;-88
2022/09/09 01:57:50;;;;;;;16.73;11.00;;;;;;;19.64;60.73;95395.28;5098303;28;20455;-88
2022/09/09 02:00:16;;;;;;;20.23;11.52;;;;;;;18.18;60.18;95153.28;5098792;28;20035;-88
2022/09/09 02:03:21;;;;;;;23.58;10.85;;;;;;;20.15;60.26;95457.19;5098125;28;20139;-88
2022/09/09 02:06:01;;;;;;;23.08;10.85;;;;;;;19.28;60.99;95358.13;5084985;28;20043;-88
2022/09/09 02:08:39;;;;;;;21.45;10.88;;;;;;;19.96;60.98;95455.75;5098183;28;20040;-88
2022/09/09 02:11:13;;;;;;;19.00;10.55;;;;;;;20.01;60.72;95450.16;5097130;28;20491;-88
2022/09/09 02:13:39;;;;;;;18.98;10.63;;;;;;;18.26;61.14;95196.19;5097900;28;20039;-88
2022/09/09 02:16:15;;;;;;;14.32;10.32;;;;;;;19.90;61.08;95448.97;5097537;28;20086;-88
2022/09/09 02:19:00;;;;;;;20.25;9.52;;;;;;;19.81;61.34;95426.69;5097625;28;20051;-88
2022/09/09 02:21:28;;;;;;;17.92;10.05;;;;;;;19.78;61.63;95434.63;5097921;28;20051;-89
2022/09/09 02:23:58;;;;;;;19.88;10.48;;;;;;;19.81;61.32;95421.31;5096859;28;20039;-89
2022/09/09 02:26:26;;;;;;;19.05;10.35;;;;;;;19.35;61.44;95359.50;5097450;28;20044;-88
2022/09/09 02:28:56;;;;;;;15.48;10.43;;;;;;;19.05;61.52;95323.75;5097488;28;20549;-88
2022/09/09 02:31:24;;;;;;;25.35;11.05;;;;;;;19.42;61.52;95392.84;5097682;28;20395;-88
2022/09/09 02:34:00;;;;;;;21.17;10.98;;;;;;;19.59;61.65;95427.78;5097660;28;20168;-88
2022/09/09 02:36:31;;;;;;;18.58;11.07;;;;;;;19.50;61.29;95402.81;5097290;28;20465;-88
2022/09/09 02:38:57;;;;;;;19.65;11.68;;;;;;;18.85;61.26;95301.84;5097581;28;20059;-88
2022/09/09 02:41:42;;;;;;;13.30;9.70;;;;;;;19.79;61.17;95442.38;5097280;28;20035;-88
2022/09/09 02:44:13;;;;;;;21.10;12.23;;;;;;;19.89;61.16;95447.41;5096059;28;20055;-88
2022/09/09 02:46:51;;;;;;;14.88;10.80;;;;;;;18.93;61.02;95326.31;5097599;28;20531;-88
2022/09/09 02:49:59;;;;;;;19.35;10.73;;;;;;;19.86;61.09;95456.09;5097326;28;20126;-88
2022/09/09 02:53:23;;;;;;;21.80;11.77;;;;;;;19.78;60.95;95466.91;5097565;28;20043;-88
2022/09/09 02:55:58;;;;;;;24.50;11.63;;;;;;;19.34;60.61;95387.50;4990932;28;20085;-88
2022/09/09 02:58:24;;;;;;;15.80;10.35;;;;;;;19.46;60.72;95409.09;5097036;28;20141;-88
2022/09/09 03:00:51;;;;;;;18.15;11.40;;;;;;;18.66;60.95;95273.81;5099267;28;20043;-88
2022/09/09 03:03:19;;;;;;;20.00;11.10;;;;;;;19.77;61.00;95449.19;5098646;28;20043;-89
2022/09/09 03:05:45;;;;;;;24.38;10.55;;;;;;;17.73;60.88;95146.47;5096512;28;20048;-88
2022/09/09 03:08:12;;;;;;;21.77;10.00;;;;;;;19.28;61.98;95454.13;5096832;28;20047;-88
2022/09/09 03:10:38;;;;;;;15.95;10.48;;;;;;;18.45;62.10;95367.66;5096554;28;20105;-88
2022/09/09 03:13:05;;;;;;;18.27;11.45;;;;;;;18.68;61.20;95341.44;5096736;28;20051;-88
2022/09/09 03:15:31;;;;;;;15.27;11.60;;;;;;;18.82;61.07;95352.75;5115759;28;20112;-88
2022/09/09 03:17:58;;;;;;;20.13;11.57;;;;;;;19.20;61.20;95411.94;5096291;28;20043;-88
2022/09/09 03:20:26;;;;;;;16.25;10.95;;;;;;;18.67;60.99;95327.22;5115830;28;20050;-88
2022/09/09 03:22:53;;;;;;;15.05;11.45;;;;;;;19.12;60.96;95394.72;5114963;28;20097;-88
2022/09/09 03:25:18;;;;;;;18.58;11.63;;;;;;;19.17;60.77;95399.91;5097130;28;20043;-88
2022/09/09 03:27:44;;;;;;;16.85;11.02;;;;;;;19.52;60.93;95456.28;5115880;28;20039;-88
2022/09/09 03:30:10;;;;;;;18.38;10.30;;;;;;;16.77;61.45;95049.59;5096992;28;20063;-88
2022/09/09 03:32:36;;;;;;;21.20;11.02;;;;;;;18.73;61.31;95349.31;5096943;28;20046;-89
2022/09/09 03:35:01;;;;;;;16.55;11.02;;;;;;;19.40;61.72;95465.00;5096475;28;20438;-88
2022/09/09 03:37:27;;;;;;;12.88;10.30;;;;;;;18.58;62.03;95342.56;5096561;28;20044;-88
2022/09/09 03:39:54;;;;;;;21.83;11.90;;;;;;;18.71;61.51;95341.56;5115291;28;20043;-88
2022/09/09 03:42:20;;;;;;;19.65;11.30;;;;;;;16.56;61.70;95015.34;5096785;28;20043;-88
2022/09/09 03:44:49;;;;;;;14.30;11.20;;;;;;;19.13;61.55;95398.19;5096446;28;20042;-88
2022/09/09 03:47:21;;;;;;;16.33;11.55;;;;;;;19.32;61.92;95451.56;5096821;28;20426;-88
2022/09/09 03:49:49;;;;;;;21.45;11.77;;;;;;;19.13;62.30;95439.31;5096617;28;20137;-88
2022/09/09 03:52:15;;;;;;;22.48;11.57;;;;;;;17.17;61.97;95128.66;5097449;28;20036;-88
2022/09/09 03:54:42;;;;;;;15.95;11.50;;;;;;;19.02;62.40;95427.31;5096335;28;20135;-88
2022/09/09 03:57:09;;;;;;;18.02;11.25;;;;;;;18.85;62.21;95405.84;5096530;28;20036;-89
2022/09/09 03:59:34;;;;;;;17.77;11.38;;;;;;;18.72;62.25;95377.28;5095233;28;20035;-88
2022/09/09 04:02:00;;;;;;;16.10;10.95;;;;;;;19.26;62.24;95475.94;5096670;28;20164;-88
2022/09/09 04:04:26;;;;;;;24.27;11.05;;;;;;;18.67;63.29;95423.91;5115376;28;20395;-88
2022/09/09 04:06:52;;;;;;;14.68;11.02;;;;;;;19.06;62.97;95476.66;5096618;28;20039;-88
2022/09/09 04:09:18;;;;;;;24.55;12.02;;;;;;;17.09;62.34;95137.47;5097971;28;20032;-88
2022/09/09 04:11:43;;;;;;;16.35;11.35;;;;;;;18.85;62.42;95422.75;5096924;28;20046;-89
2022/09/09 04:14:09;;;;;;;19.50;11.23;;;;;;;18.51;62.50;95369.06;5095854;28;20043;-88
2022/09/09 04:16:37;;;;;;;21.98;12.68;;;;;;;16.78;62.44;95107.41;5096346;28;20044;-89
2022/09/09 04:19:04;;;;;;;25.23;12.85;;;;;;;16.54;62.31;95041.66;5095840;28;20429;-89
2022/09/09 04:21:30;;;;;;;21.13;11.85;;;;;;;18.12;62.19;95284.97;5096586;28;20040;-89
2022/09/09 04:23:55;;;;;;;18.13;12.27;;;;;;;18.86;62.52;95418.97;5114519;28;20044;-89
2022/09/09 04:26:22;;;;;;;23.77;11.85;;;;;;;19.14;62.73;95462.41;5095601;28;20040;-89
2022/09/09 04:28:47;;;;;;;21.63;12.65;;;;;;;18.68;63.00;95389.78;5095253;28;20032;-89
2022/09/09 04:31:19;;;;;;;29.73;12.43;;;;;;;19.18;62.82;95457.94;5095030;28;20036;-89
2022/09/09 04:33:46;;;;;;;21.60;12.23;;;;;;;17.54;62.42;95215.72;5096297;28;20130;-89
2022/09/09 04:36:13;;;;;;;19.77;12.02;;;;;;;18.92;61.70;95422.25;5095232;28;20036;-89
2022/09/09 04:38:39;;;;;;;21.02;12.20;;;;;;;19.15;61.57;95455.88;5095985;28;20042;-89
2022/09/09 04:41:05;;;;;;;17.98;11.10;;;;;;;17.47;60.68;95204.66;5094963;28;20525;-89
2022/09/09 04:43:31;;;;;;;22.25;10.75;;;;;;;18.66;60.81;95408.91;5113535;28;20031;-89
2022/09/09 04:45:57;;;;;;;23.55;12.25;;;;;;;18.49;60.88;95366.72;5095692;28;20393;-89
2022/09/09 04:48:24;;;;;;;15.75;10.60;;;;;;;18.51;60.42;95371.75;5095560;28;20066;-89
2022/09/09 04:51:04;;;;;;;18.40;11.63;;;;;;;18.59;60.46;95367.53;5087320;28;20048;-89
2022/09/09 04:53:30;;;;;;;20.75;11.65;;;;;;;17.17;59.96;95125.97;5095034;28;20466;-89
2022/09/09 04:56:04;;;;;;;19.58;10.75;;;;;;;18.69;59.92;95343.00;5092777;28;20053;-89
2022/09/09 04:58:30;;;;;;;20.85;11.65;;;;;;;18.80;59.64;95360.34;5104999;28;20380;-88
2022/09/09 05:01:03;;;;;;;22.42;11.85;;;;;;;18.70;59.97;95334.59;5096696;28;20520;-88
2022/09/09 05:03:28;;;;;;;28.50;11.18;;;;;;;19.39;59.96;95441.09;5111454;28;20051;-88
2022/09/09 05:06:08;;;;;;;19.00;11.48;;;;;;;18.82;59.37;95339.31;5078056;28;20395;-87
2022/09/09 05:08:34;;;;;;;19.60;12.48;;;;;;;19.32;59.05;95411.22;5086812;28;20137;-88
2022/09/09 05:11:00;;;;;;;26.83;11.48;;;;;;;19.20;58.50;95375.06;5084732;28;20039;-88
2022/09/09 05:13:28;;;;;;;20.10;12.07;;;;;;;19.29;58.70;95385.78;5087777;28;20105;-89
2022/09/09 05:15:55;;;;;;;21.70;12.90;;;;;;;19.74;58.41;95442.56;5090074;28;20046;-89
2022/09/09 05:18:22;;;;;;;30.33;13.00;;;;;;;19.02;58.07;95324.38;5084657;28;20496;-89
2022/09/09 05:20:48;;;;;;;27.10;12.25;;;;;;;18.32;58.42;95213.69;5095336;28;20145;-89
2022/09/09 05:23:13;;;;;;;23.48;13.45;;;;;;;18.72;58.19;95296.69;5097007;28;20047;-89
2022/09/09 05:25:43;;;;;;;26.15;14.05;;;;;;;19.53;57.68;95387.94;5082967;28;20046;-88
2022/09/09 05:28:10;;;;;;;24.95;12.82;;;;;;;19.00;57.68;95305.88;5091422;28;20043;-89
2022/09/09 05:30:36;;;;;;;36.40;13.68;;;;;;;19.15;57.73;95318.00;5097070;28;20044;-89
2022/09/09 05:33:02;;;;;;;23.88;13.50;;;;;;;19.17;57.64;95315.78;5085364;28;20047;-89
2022/09/09 05:35:27;;;;;;;24.58;13.60;;;;;;;18.35;57.51;95164.72;5078315;28;20915;-89
2022/09/09 05:37:53;;;;;;;28.65;13.60;;;;;;;18.96;57.05;95247.75;5088096;28;20764;-89
2022/09/09 05:40:18;;;;;;;22.73;12.65;;;;;;;18.34;56.83;95176.56;5076493;28;20047;-89
2022/09/09 05:42:44;;;;;;;32.10;13.07;;;;;;;20.10;56.81;95438.56;5078260;28;20042;-89
2022/09/09 05:45:09;;;;;;;28.90;14.50;;;;;;;18.48;57.34;95217.44;5083416;28;20453;-89
2022/09/09 05:47:37;;;;;;;20.30;13.10;;;;;;;15.92;57.41;94842.38;5098634;28;20031;-88
2022/09/09 05:50:04;;;;;;;26.10;14.25;;;;;;;16.02;57.18;94844.75;5089253;28;20027;-88
2022/09/09 05:52:29;;;;;;;26.55;13.35;;;;;;;19.63;57.05;95401.78;5079808;28;20044;-89
2022/09/09 05:54:56;;;;;;;19.98;13.00;;;;;;;19.76;56.86;95393.81;5084832;28;20594;-89
2022/09/09 05:57:22;;;;;;;24.13;12.63;;;;;;;18.45;56.52;95177.81;5078180;28;20046;-90
2022/09/09 05:59:48;;;;;;;26.02;13.20;;;;;;;19.94;56.12;95385.28;5079725;28;20414;-90
2022/09/09 06:02:17;;;;;;;24.42;11.85;;;;;;;17.61;55.56;95022.97;5082363;28;20036;-90
2022/09/09 06:04:42;;;;;;;16.80;10.63;;;;;;;20.27;55.07;95458.06;5066907;28;20123;-91
2022/09/09 06:07:08;;;;;;;15.88;10.05;;;;;;;19.15;54.89;95266.91;5080163;28;20431;-90
2022/09/09 06:09:37;;;;;;;15.07;9.23;;;;;;;20.46;54.79;95473.78;5080636;28;20046;-88
2022/09/09 06:12:02;;;;;;;16.33;7.55;;;;;;;18.77;55.11;95210.53;5083207;28;20086;-89
2022/09/09 06:14:40;;;;;;;21.23;7.80;;;;;;;17.00;54.15;94908.22;5103242;28;20329;-90
2022/09/09 06:17:05;;;;;;;13.73;6.95;;;;;;;18.78;53.96;95182.56;5063765;28;20047;-89
2022/09/09 06:19:33;;;;;;;14.23;7.22;;;;;;;18.55;53.91;95128.28;5083361;28;20036;-90
2022/09/09 06:22:18;;;;;;;19.25;6.75;;;;;;;17.11;53.68;94899.50;5095459;28;20045;-90
2022/09/09 06:24:44;;;;;;;12.10;7.13;;;;;;;20.77;52.90;95452.63;5087087;28;20040;-91
2022/09/09 06:27:10;;;;;;;14.50;7.68;;;;;;;20.57;52.72;95458.03;5090909;28;20528;-89
2022/09/09 06:29:36;;;;;;;21.50;7.72;;;;;;;19.66;52.30;95287.34;5070862;28;20086;-89
2022/09/09 06:32:03;;;;;;;17.50;8.07;;;;;;;18.36;52.84;95104.56;5082826;28;20167;-91
2022/09/09 06:34:28;;;;;;;18.52;7.65;;;;;;;19.63;53.71;95326.44;5086755;28;20051;-90
2022/09/09 06:36:57;;;;;;;17.15;7.93;;;;;;;18.12;53.27;95048.00;5083186;28;20035;-90
2022/09/09 06:39:23;;;;;;;16.70;7.63;;;;;;;20.76;53.22;95439.47;5081420;28;20051;-89
2022/09/09 06:41:52;;;;;;;13.75;6.43;;;;;;;20.99;52.49;95446.06;5083653;28;20036;-90
2022/09/09 06:44:18;;;;;;;15.70;6.53;;;;;;;17.12;51.96;94836.78;5084375;28;20093;-89
2022/09/09 06:46:46;;;;;;;14.48;6.43;;;;;;;21.15;52.11;95460.50;5086307;28;20099;-88
2022/09/09 06:49:15;;;;;;;14.77;6.05;;;;;;;19.44;51.86;95194.28;5085903;28;20040;-91
2022/09/09 06:52:15;;;;;;;16.08;5.63;;;;;;;21.21;51.49;95455.69;5066511;28;20043;-91
2022/09/09 06:54:41;;;;;;;9.70;5.80;;;;;;;18.57;51.27;95050.13;5075086;28;20130;-89
2022/09/09 06:57:07;;;;;;;12.05;5.57;;;;;;;20.37;50.62;95343.78;5088667;28;20115;-89
2022/09/09 06:59:34;;;;;;;12.80;5.45;;;;;;;21.21;51.25;95465.72;5068862;28;20126;-89
2022/09/09 07:02:12;;;;;;;14.88;5.75;;;;;;;21.42;50.99;95472.63;5079863;28;20112;-90
2022/09/09 07:04:37;;;;;;;17.75;5.25;;;;;;;20.18;50.96;95257.28;5087538;28;20039;-89
2022/09/09 07:07:12;;;;;;;15.30;7.25;;;;;;;17.89;50.03;94907.19;5063279;28;20052;-89
2022/09/09 07:09:37;;;;;;;10.90;5.63;;;;;;;21.30;49.78;95442.13;5054310;28;20395;-88
2022/09/09 07:12:04;;;;;;;12.52;5.65;;;;;;;19.04;49.69;95081.06;5063747;28;20059;-89
2022/09/09 07:14:39;;;;;;;13.95;6.07;;;;;;;19.30;50.06;95093.50;5044635;28;20109;-91
2022/09/09 07:17:12;;;;;;;23.58;6.20;;;;;;;20.84;49.93;95330.00;5078620;28;20044;-91
2022/09/09 07:19:43;;;;;;;10.20;5.22;;;;;;;17.60;49.73;94800.72;5062296;28;20111;-90
2022/09/09 07:25:02;;;;;;;10.20;6.47;;;;;;;21.13;49.77;95327.13;5077045;28;20234;-89
2022/09/09 07:27:27;;;;;;;10.48;6.28;;;;;;;20.20;49.59;95169.69;5051815;28;20056;-89
2022/09/09 07:29:54;;;;;;;10.63;5.68;;;;;;;21.46;49.16;95354.78;5063516;28;20043;-89
2022/09/09 07:32:45;;;;;;;13.05;6.18;;;;;;;21.76;48.32;95405.81;5064651;28;20101;-91
2022/09/09 07:35:43;;;;;;;;;;;;;;;;;;;;;
2022/09/09 07:40:42;;;;;;;17.83;5.95;;;;;;;20.63;48.00;95171.09;5082978;28;20063;-91
2022/09/09 07:43:09;;;;;;;11.88;6.13;;;;;;;20.99;48.33;95216.88;5069957;28;20108;-90
2022/09/09 07:46:01;;;;;;;11.57;5.47;;;;;;;19.89;48.85;95062.53;5074793;28;20043;-91
2022/09/09 07:48:52;;;;;;;13.38;5.95;;;;;;;20.56;47.48;95160.88;5076824;28;20071;-90
2022/09/09 07:51:39;;;;;;;10.75;5.45;;;;;;;21.39;46.96;95284.44;5067519;28;20127;-90
2022/09/09 07:54:10;;;;;;;22.08;5.60;;;;;;;22.54;46.85;95449.50;5085037;28;20040;-90
2022/09/09 07:56:37;;;;;;;13.05;5.40;;;;;;;22.24;46.83;95373.38;5078934;28;20121;-90
2022/09/09 07:59:04;;;;;;;11.93;5.50;;;;;;;22.19;46.70;95362.81;5062375;28;20144;-89
2022/09/09 08:01:42;;;;;;;11.20;5.20;;;;;;;22.92;46.24;95445.56;5059844;28;20039;-90
2022/09/09 08:04:16;;;;;;;11.75;6.03;;;;;;;22.63;46.34;95379.88;5037941;28;20109;-89
2022/09/09 08:07:00;;;;;;;16.00;5.63;;;;;;;22.92;45.65;95394.94;5059829;28;20050;-90
2022/09/09 08:09:28;;;;;;;9.88;5.95;;;;;;;22.61;45.19;95333.47;5060436;28;20052;-89
2022/09/09 08:11:56;;;;;;;15.20;5.72;;;;;;;23.28;45.58;95407.47;5068843;28;20519;-89
2022/09/09 08:14:22;;;;;;;13.73;6.05;;;;;;;23.03;45.41;95358.16;5065685;28;20043;-89
2022/09/09 08:16:49;;;;;;;9.82;5.65;;;;;;;23.72;45.30;95438.00;5067294;28;20036;-89
2022/09/09 08:19:17;;;;;;;8.27;5.80;;;;;;;22.73;44.54;95280.47;5078857;28;20107;-89
2022/09/09 08:21:44;;;;;;;13.52;5.95;;;;;;;23.85;44.89;95444.88;5067597;28;20067;-89
2022/09/09 08:27:55;;;;;;;18.75;5.50;;;;;;;24.14;44.86;95440.88;5104478;28;20099;-88
2022/09/09 08:30:21;;;;;;;11.27;5.10;;;;;;;22.53;45.02;95163.34;5079723;28;20051;-89
2022/09/09 08:32:50;;;;;;;11.70;5.57;;;;;;;23.82;43.81;95352.69;5096324;28;20047;-89
2022/09/09 08:35:17;;;;;;;14.77;5.75;;;;;;;24.04;43.21;95346.59;5096998;28;20036;-89
2022/09/09 08:37:42;;;;;;;14.60;5.82;;;;;;;22.66;43.46;95133.16;5095296;28;20577;-89
2022/09/09 08:40:24;;;;;;;12.38;6.68;;;;;;;22.70;43.14;95123.25;5089656;28;20050;-89
2022/09/09 08:42:55;;;;;;;13.30;6.38;;;;;;;23.74;43.49;95262.41;5088649;28;20044;-89
2022/09/09 08:45:42;;;;;;;11.57;4.97;;;;;;;22.31;43.15;94998.03;5088681;28;20047;-90
2022/09/09 08:48:38;;;;;;;11.07;5.97;;;;;;;25.08;43.07;95423.50;5082743;28;20093;-91
2022/09/09 08:51:08;;;;;;;11.43;6.03;;;;;;;22.56;42.40;95009.41;5079741;28;20036;-91
2022/09/09 08:53:46;;;;;;;11.05;5.57;;;;;;;21.77;42.79;94851.34;5085033;28;20024;-91
2022/09/09 08:56:24;;;;;;;10.80;6.00;;;;;;;23.67;43.25;95132.28;5078673;28;20456;-91
2022/09/09 08:58:52;;;;;;;8.95;5.80;;;;;;;24.83;42.73;95335.41;5092229;28;20068;-90
2022/09/09 09:01:46;;;;;;;11.32;5.85;;;;;;;23.44;42.83;95117.88;5090562;28;20097;-89
2022/09/09 09:04:14;;;;;;;9.80;5.75;;;;;;;25.44;42.78;95421.41;5076566;28;20040;-89
2022/09/09 09:06:54;;;;;;;16.70;6.40;;;;;;;25.58;42.51;95425.16;5095649;28;20055;-89
2022/09/09 09:12:47;;;;;;;8.48;5.55;;;;;;;24.57;42.65;95203.22;5071136;28;20131;-89
2022/09/09 09:15:21;;;;;;;13.77;5.78;;;;;;;23.29;42.30;94986.94;5085611;28;20048;-90
2022/09/09 09:18:00;;;;;;;9.00;5.53;;;;;;;23.03;41.53;94928.13;5083393;28;20046;-91
2022/09/09 09:21:31;;;;;;;8.77;5.63;;;;;;;26.29;40.92;95422.78;5082185;28;20040;-91
2022/09/09 09:24:09;;;;;;;12.00;4.88;;;;;;;24.48;40.61;95105.91;5036284;28;20653;-91
2022/09/09 09:26:35;;;;;;;21.48;5.95;;;;;;;26.01;40.54;95360.63;5021872;28;20526;-91
2022/09/09 09:29:15;;;;;;;21.08;6.45;;;;;;;25.16;40.15;95213.53;5055846;28;20113;-90
2022/09/09 09:32:01;;;;;;;11.93;6.07;;;;;;;24.79;41.02;95215.22;5102551;28;20089;-90
2022/09/09 09:34:30;;;;;;;9.15;6.32;;;;;;;23.13;40.97;94950.28;5098415;28;20051;-89
2022/09/09 09:37:20;;;;;;;10.07;5.65;;;;;;;22.68;40.74;94938.22;5095323;28;20040;-91
2022/09/09 09:39:51;;;;;;;8.60;5.53;;;;;;;24.16;40.36;95126.22;5097311;28;20069;-90
2022/09/09 09:42:23;;;;;;;11.45;5.60;;;;;;;25.08;39.93;95235.47;5087298;28;20035;-91
2022/09/09 09:47:27;;;;;;;11.48;6.00;;;;;;;23.20;40.81;94897.09;5099698;28;20112;-90
2022/09/09 09:50:25;;;;;;;10.80;6.20;;;;;;;24.85;39.97;95138.63;5077191;28;20075;-91
2022/09/09 09:52:58;;;;;;;17.33;6.03;;;;;;;23.62;39.66;94934.97;5070931;28;20070;-91
2022/09/09 09:58:54;;;;;;;17.67;10.40;;;;;;;25.88;40.14;95275.03;5074587;28;20360;-90
2022/09/09 10:01:48;;;;;;;;;;;;;;;;;;;;;
2022/09/09 10:04:33;;;;;;;21.30;6.25;;;;;;;26.97;39.88;95380.88;5076651;28;20115;-90
2022/09/09 10:10:48;;;;;;;10.32;5.78;;;;;;;24.19;39.62;94925.00;5072869;28;20036;-91
2022/09/09 10:13:34;;;;;;;9.25;5.80;;;;;;;27.25;38.59;95397.47;5082037;28;20043;-92
2022/09/09 10:16:42;;;;;;;11.77;7.78;;;;;;;27.01;38.92;95404.22;5074356;28;20666;-91
2022/09/09 10:19:37;;;;;;;9.90;5.55;;;;;;;23.88;39.86;94895.53;5073926;28;20522;-91
2022/09/09 10:22:41;;;;;;;17.95;5.68;;;;;;;27.16;39.84;95405.16;5061389;28;20036;-91
2022/09/09 10:25:33;;;;;;;14.95;5.88;;;;;;;26.75;39.53;95407.81;5078399;28;20051;-91
2022/09/09 10:28:47;;;;;;;16.30;6.90;;;;;;;26.59;40.21;95403.72;5088919;28;20062;-91
2022/09/09 10:31:33;;;;;;;11.63;6.35;;;;;;;26.43;40.31;95409.34;5082346;28;20047;-90
2022/09/09 10:34:44;;;;;;;18.17;6.60;;;;;;;23.72;42.01;95018.31;5100032;27;20046;-90
2022/09/09 10:38:01;;;;;;;19.33;6.63;;;;;;;26.29;41.45;95406.47;5092433;28;20078;-89
2022/09/09 10:40:56;;;;;;;18.13;6.97;;;;;;;26.29;41.40;95406.47;5092239;28;21032;-90
2022/09/09 10:43:34;;;;;;;15.05;7.57;;;;;;;26.27;41.45;95411.47;5080361;28;20131;-90
2022/09/09 10:46:43;;;;;;;20.20;7.32;;;;;;;22.73;41.87;94916.31;5085114;28;20035;-90
2022/09/09 10:49:33;;;;;;;23.08;8.68;;;;;;;25.64;42.72;95412.84;5045516;28;20546;-90
2022/09/09 10:52:14;;;;;;;13.70;7.25;;;;;;;25.69;42.29;95407.13;5100145;28;20043;-90
2022/09/09 10:55:40;;;;;;;12.27;6.50;;;;;;;21.77;43.08;94827.84;5107910;28;20051;-90
2022/09/09 10:58:58;;;;;;;11.63;6.63;;;;;;;23.66;42.25;95119.91;5085349;28;20105;-90
2022/09/09 11:01:40;;;;;;;17.60;7.43;;;;;;;21.98;42.63;94884.25;5058727;28;20262;-90
2022/09/09 11:04:26;;;;;;;17.08;8.23;;;;;;;22.44;42.80;94935.78;5084393;28;20032;-90
2022/09/09 11:07:03;;;;;;;16.85;8.30;;;;;;;22.00;43.55;94895.47;5088109;28;20043;-90
2022/09/09 11:09:40;;;;;;;19.38;7.82;;;;;;;22.26;43.11;94892.19;5092075;28;20043;-90
2022/09/09 11:12:20;;;;;;;14.95;8.45;;;;;;;25.47;43.53;95424.19;5095167;28;20074;-90
2022/09/09 11:15:20;;;;;;;25.60;8.10;;;;;;;25.56;43.30;95410.34;5107776;28;20039;-90
2022/09/09 11:17:50;;;;;;;14.57;7.85;;;;;;;22.20;44.05;94907.88;5081154;28;20074;-90
2022/09/09 11:21:03;;;;;;;21.10;8.70;;;;;;;22.64;44.25;94977.91;5089985;28;20528;-90
2022/09/09 11:23:59;;;;;;;14.90;8.40;;;;;;;22.23;44.33;94863.19;5084522;28;20854;-90
2022/09/09 11:26:56;;;;;;;17.42;9.07;;;;;;;22.40;43.85;94899.81;5079472;28;20066;-91
2022/09/09 11:29:44;;;;;;;21.73;8.00;;;;;;;21.77;44.32;94835.94;5087170;28;20040;-89
2022/09/09 11:32:51;;;;;;;25.20;8.43;;;;;;;25.52;43.65;95383.16;5108305;27;20516;-90
2022/09/09 11:36:02;;;;;;;22.88;9.35;;;;;;;24.90;44.16;95290.22;5098460;28;20103;-90
2022/09/09 11:38:53;;;;;;;22.58;7.70;;;;;;;23.59;43.95;95059.41;5091737;28;20107;-92
2022/09/09 11:41:25;;;;;;;;;;;;;;;25.56;44.33;95366.88;5092841;28;20104;-90
2022/09/09 11:44:48;;;;;;;21.30;8.43;;;;;;;25.87;43.87;95371.28;5103031;28;19924;-90
2022/09/09 11:47:26;;;;;;;22.15;8.02;;;;;;;24.77;43.66;95172.19;5089031;28;20062;-90
2022/09/09 11:49:55;;;;;;;22.35;8.70;;;;;;;23.08;43.40;94875.66;5099631;28;20066;-90
2022/09/09 11:52:46;;;;;;;22.73;8.35;;;;;;;22.44;42.93;94754.75;5088854;28;20051;-89
2022/09/09 11:55:32;;;;;;;16.88;8.57;;;;;;;25.12;43.24;95135.91;5109900;28;20035;-89
2022/09/09 11:58:02;;;;;;;23.25;9.95;;;;;;;23.41;42.93;94839.88;5098458;28;20402;-89
2022/09/09 12:00:49;;;;;;;26.40;8.77;;;;;;;24.65;43.21;95041.44;5090741;28;20585;-89
2022/09/09 12:03:56;;;;;;;17.15;8.10;;;;;;;26.77;42.50;95325.84;5093724;28;20039;-89
2022/09/09 12:06:39;;;;;;;20.95;8.98;;;;;;;26.91;42.09;95330.66;5077368;28;20056;-89
2022/09/09 12:09:16;;;;;;;27.50;8.50;;;;;;;25.69;41.75;95074.97;5092925;28;20593;-89
2022/09/09 12:11:41;;;;;;;18.70;8.52;;;;;;;27.45;40.51;95286.41;5087113;28;20055;-90
2022/09/09 12:14:38;;;;;;;17.50;8.75;;;;;;;28.08;39.96;95318.72;5088897;28;20135;-89
2022/09/09 12:17:14;;;;;;;27.85;8.77;;;;;;;28.44;39.69;95306.06;5068839;28;20066;-89
2022/09/09 12:19:40;;;;;;;18.92;9.07;;;;;;;27.19;39.37;95091.34;5081983;28;20050;-89
2022/09/09 12:22:40;;;;;;;20.75;8.45;;;;;;;28.85;39.08;95305.78;5088078;28;20040;-89
2022/09/09 12:25:35;;;;;;;18.52;7.60;;;;;;;28.74;39.03;95300.28;5071905;28;20044;-89
2022/09/09 12:28:04;;;;;;;14.90;7.30;;;;;;;29.06;38.69;95303.09;5092423;28;20066;-89